Manouane, Canada
Current Conditions -  °F | °C
As of 9:00 AM on Monday 22 Dec 2014 (Local Time) from CYRQ Reporting Station
Light Snow Light Snow  
Wind Chill:   Ceiling: 1000
Heat Index: 14°   Visibility: 9mi
Dew Point: 10°   Wind: 7mph
Humidity: 86%   Direction: 20°NNE
Pressure: 30.44"   Gusts: NA
Location:  47.22°N, 74.37°W
Report Text: CYRQ 221400Z AUTO 02006KT 9SM -SN OVC010 M10/M12 A3044 RMK SLP314
Loading
Personal Weather Stations






























Interactive Weather Map New forecast layout! Learn more

10-Day Weather Forecast

Advertisements
Track Severe Weather on mobile